Santa Fe, Texas
Current Conditions -  °F | °C
As of 4:53 PM on Wednesday 22 Oct 2014 (Local Time) from KLVJ Reporting Station
Clear Clear  
Wind Chill: 80°   Ceiling: Unl
Heat Index: 80°   Visibility: 10mi
Dew Point: 57°   Wind: 10mph
Humidity: 45%   Direction: 100°E
Pressure: 30.04"   Gusts: NA
Location:  29.37°N, 95.08°W
Report Text: KLVJ 222153Z AUTO 10009KT 10SM CLR 27/14 A3004 RMK AO2 SLP170 T02670139
Loading
Personal Weather Stations






























Interactive Weather Map
Tropical Storm Tracking
New forecast layout! Learn more

10-Day Weather Forecast

Advertisements
Track Severe Weather on mobile